Time;durP1;ratioP1;P1;durP2;ratioP2;P2;SDS_P1;SDS_P2;PMS_P1;PMS_P2;Temp;Humidity;BMP_temperature;BMP_pressure;BME280_temperature;BME280_humidity;BME280_pressure;Samples;Min_cycle;Max_cycle;Signal;HPM_P1;HPM_P2
2023/06/08 00:02:03;;;;;;;4.00;3.17;;;21.30;62.90;;;;;;5015952;28;20536;-79
2023/06/08 00:04:32;;;;;;;3.57;3.27;;;21.20;62.80;;;;;;5015646;28;20235;-78
2023/06/08 00:07:03;;;;;;;4.27;3.60;;;21.20;62.90;;;;;;5015716;28;20207;-78
2023/06/08 00:09:30;;;;;;;3.80;3.50;;;21.20;63.00;;;;;;5015286;28;20231;-78
2023/06/08 00:11:58;;;;;;;3.90;3.60;;;21.20;62.90;;;;;;5014531;28;20203;-78
2023/06/08 00:14:25;;;;;;;3.70;3.40;;;21.20;63.00;;;;;;5014869;28;20223;-78
2023/06/08 00:16:52;;;;;;;3.90;3.43;;;21.20;63.20;;;;;;5015479;28;20286;-79
2023/06/08 00:19:19;;;;;;;4.10;3.63;;;21.20;63.40;;;;;;5015673;28;20261;-79
2023/06/08 00:21:48;;;;;;;5.33;4.33;;;21.20;63.40;;;;;;5015359;28;20231;-80
2023/06/08 00:24:20;;;;;;;5.40;4.33;;;21.10;64.10;;;;;;5014212;28;20206;-79
2023/06/08 00:26:47;;;;;;;4.73;4.30;;;21.10;63.70;;;;;;5014698;28;20203;-79
2023/06/08 00:29:14;;;;;;;3.67;3.37;;;21.10;63.50;;;;;;5015444;28;20258;-79
2023/06/08 00:31:41;;;;;;;4.13;3.83;;;21.00;63.20;;;;;;5014435;28;20648;-79
2023/06/08 00:34:08;;;;;;;3.63;3.33;;;21.00;63.40;;;;;;5014646;28;20219;-79
2023/06/08 00:36:35;;;;;;;4.17;3.40;;;21.00;63.50;;;;;;4980299;28;20209;-78
2023/06/08 00:39:01;;;;;;;5.97;3.90;;;20.90;63.50;;;;;;5012232;28;20664;-79
2023/06/08 00:41:30;;;;;;;4.10;3.80;;;20.90;63.80;;;;;;5015134;28;20227;-79
2023/06/08 00:43:57;;;;;;;4.23;3.73;;;20.90;64.00;;;;;;5015219;28;20210;-78
2023/06/08 00:46:30;;;;;;;3.77;3.47;;;20.90;64.00;;;;;;5014622;28;20221;-79
2023/06/08 00:48:58;;;;;;;3.73;3.40;;;20.80;64.10;;;;;;5010229;28;20247;-78
2023/06/08 00:51:27;;;;;;;4.57;4.00;;;20.80;64.20;;;;;;5015227;28;20652;-79
2023/06/08 00:53:56;;;;;;;4.07;3.60;;;20.80;64.50;;;;;;5013651;28;20226;-79
2023/06/08 00:56:26;;;;;;;4.40;4.00;;;20.80;64.30;;;;;;5014525;28;20266;-80
2023/06/08 00:58:56;;;;;;;4.00;3.70;;;20.70;64.40;;;;;;5014663;28;20199;-79
2023/06/08 01:01:25;;;;;;;4.20;3.80;;;20.70;64.50;;;;;;5012177;28;20196;-80
2023/06/08 01:03:55;;;;;;;4.60;4.10;;;20.70;64.70;;;;;;5014950;28;20563;-79
2023/06/08 01:06:22;;;;;;;4.23;3.90;;;20.70;64.50;;;;;;5014480;28;20712;-79
2023/06/08 01:08:59;;;;;;;3.43;3.13;;;20.50;64.50;;;;;;5013395;28;20571;-78
2023/06/08 01:11:37;;;;;;;5.50;3.60;;;20.50;65.00;;;;;;4995040;28;20207;-79
2023/06/08 01:14:15;;;;;;;5.13;3.20;;;20.50;64.80;;;;;;4994903;28;20691;-79
2023/06/08 01:16:49;;;;;;;5.83;3.53;;;20.40;65.00;;;;;;4995292;28;20208;-79
2023/06/08 01:19:23;;;;;;;6.30;3.83;;;20.40;64.70;;;;;;4995144;28;20294;-79
2023/06/08 01:22:07;;;;;;;3.40;3.07;;;20.40;64.70;;;;;;4994103;28;20640;-78
2023/06/08 01:24:38;;;;;;;4.27;3.87;;;20.40;65.00;;;;;;5008518;28;20226;-79
2023/06/08 01:27:07;;;;;;;4.23;3.83;;;20.40;64.80;;;;;;5011482;28;20246;-81
2023/06/08 01:29:35;;;;;;;3.60;3.30;;;20.40;64.90;;;;;;4995118;28;20196;-79
2023/06/08 01:32:05;;;;;;;4.27;3.40;;;20.40;65.10;;;;;;5008494;28;20203;-80
2023/06/08 01:34:33;;;;;;;4.20;3.80;;;20.30;65.20;;;;;;4993481;28;20714;-79
2023/06/08 01:37:08;;;;;;;3.93;3.40;;;20.30;65.40;;;;;;4994000;28;20298;-79
2023/06/08 01:39:46;;;;;;;4.93;3.67;;;20.30;65.70;;;;;;4994944;28;20241;-78
2023/06/08 01:42:15;;;;;;;3.33;3.07;;;20.30;66.00;;;;;;5004135;28;20238;-79
2023/06/08 01:44:46;;;;;;;3.80;3.50;;;20.20;65.50;;;;;;5013736;28;20226;-79
2023/06/08 01:47:15;;;;;;;3.87;3.40;;;20.20;65.50;;;;;;5014604;28;20211;-79
2023/06/08 01:49:43;;;;;;;3.53;3.23;;;20.10;65.60;;;;;;5014076;28;20227;-80
2023/06/08 01:52:10;;;;;;;4.53;3.30;;;20.10;65.80;;;;;;5013571;28;20257;-80
2023/06/08 01:54:39;;;;;;;3.80;3.40;;;20.10;65.80;;;;;;5013939;28;20230;-80
2023/06/08 01:57:06;;;;;;;3.97;3.60;;;20.10;65.80;;;;;;5011019;28;20286;-79
2023/06/08 01:59:33;;;;;;;4.47;3.37;;;20.10;66.60;;;;;;5013750;28;20199;-79
2023/06/08 02:02:00;;;;;;;3.87;3.57;;;20.00;65.70;;;;;;5013563;28;20219;-79
2023/06/08 02:04:27;;;;;;;4.00;3.60;;;20.00;65.80;;;;;;5013823;28;20199;-79
2023/06/08 02:06:54;;;;;;;3.90;3.60;;;20.00;65.90;;;;;;5013220;28;20223;-78
2023/06/08 02:09:21;;;;;;;3.80;3.50;;;20.00;65.80;;;;;;5013770;28;20203;-80
2023/06/08 02:11:49;;;;;;;4.97;3.57;;;19.90;66.00;;;;;;5013958;28;20207;-80
2023/06/08 02:14:16;;;;;;;4.03;3.63;;;19.90;66.20;;;;;;5013645;28;20215;-79
2023/06/08 02:16:45;;;;;;;4.67;3.83;;;19.90;66.30;;;;;;5010290;28;20572;-79
2023/06/08 02:19:16;;;;;;;3.63;3.33;;;19.90;66.50;;;;;;5005438;28;20242;-79
2023/06/08 02:21:43;;;;;;;4.10;3.70;;;19.80;66.50;;;;;;5012944;28;20732;-80
2023/06/08 02:24:10;;;;;;;3.83;3.10;;;19.80;66.50;;;;;;5012936;28;20314;-79
2023/06/08 02:26:37;;;;;;;4.00;3.57;;;19.80;66.60;;;;;;5013208;28;20203;-80
2023/06/08 02:29:05;;;;;;;3.70;3.40;;;19.80;66.70;;;;;;5013424;28;20207;-79
2023/06/08 02:31:32;;;;;;;3.60;3.30;;;19.70;66.70;;;;;;5013606;28;20296;-79
2023/06/08 02:33:59;;;;;;;5.10;3.50;;;19.70;66.80;;;;;;5012991;28;20310;-79
2023/06/08 02:36:31;;;;;;;4.13;3.73;;;19.70;66.70;;;;;;5010902;28;20200;-79
2023/06/08 02:38:58;;;;;;;3.77;3.37;;;19.70;67.00;;;;;;5013475;28;20265;-80
2023/06/08 02:41:26;;;;;;;3.67;3.37;;;19.70;67.10;;;;;;5013185;28;20260;-79
2023/06/08 02:43:53;;;;;;;3.67;3.37;;;19.60;67.10;;;;;;5013011;28;20207;-80
2023/06/08 02:46:21;;;;;;;4.00;3.60;;;19.60;67.10;;;;;;5012467;28;20241;-79
2023/06/08 02:48:49;;;;;;;4.00;3.60;;;19.60;67.10;;;;;;5012896;28;20230;-80
2023/06/08 02:51:16;;;;;;;5.83;3.53;;;19.50;67.00;;;;;;5012463;28;20253;-80
2023/06/08 02:53:43;;;;;;;3.70;3.40;;;19.50;67.00;;;;;;5012634;28;20223;-79
2023/06/08 02:56:11;;;;;;;4.70;4.27;;;19.50;66.90;;;;;;5011726;28;20203;-79
2023/06/08 02:58:41;;;;;;;5.97;3.90;;;19.40;66.80;;;;;;5012878;28;20214;-80
2023/06/08 03:01:14;;;;;;;4.83;3.77;;;19.40;66.90;;;;;;4996705;28;20676;-79
2023/06/08 03:03:43;;;;;;;3.60;3.30;;;19.40;66.80;;;;;;5006216;28;20199;-79
2023/06/08 03:06:12;;;;;;;4.30;3.63;;;19.30;66.80;;;;;;5012607;28;20203;-79
2023/06/08 03:08:39;;;;;;;3.87;3.57;;;19.30;66.90;;;;;;5012685;28;20203;-80
2023/06/08 03:11:06;;;;;;;4.07;3.67;;;19.30;67.00;;;;;;5013012;28;20203;-79
2023/06/08 03:13:33;;;;;;;4.17;3.77;;;19.20;67.10;;;;;;5012250;28;20235;-80
2023/06/08 03:16:00;;;;;;;4.03;3.70;;;19.20;67.20;;;;;;5012564;28;20210;-79
2023/06/08 03:18:27;;;;;;;4.33;3.67;;;19.20;67.50;;;;;;5010921;28;20199;-79
2023/06/08 03:20:55;;;;;;;4.10;3.70;;;19.20;67.60;;;;;;5012889;28;20321;-75
2023/06/08 03:23:22;;;;;;;4.20;3.80;;;19.20;67.80;;;;;;5012985;28;20206;-76
2023/06/08 03:25:51;;;;;;;4.20;3.90;;;19.20;67.90;;;;;;5012838;28;20323;-76
2023/06/08 03:28:18;;;;;;;3.93;3.63;;;19.20;67.80;;;;;;5012440;28;20597;-77
2023/06/08 03:30:45;;;;;;;3.73;3.43;;;19.10;67.60;;;;;;5012741;28;20242;-79
2023/06/08 03:33:14;;;;;;;3.73;3.43;;;19.10;67.60;;;;;;5008244;28;20214;-76
2023/06/08 03:35:42;;;;;;;4.20;3.80;;;19.10;67.70;;;;;;5012685;28;20482;-78
2023/06/08 03:38:10;;;;;;;4.63;4.23;;;19.10;67.80;;;;;;5012303;28;20662;-75
2023/06/08 03:40:37;;;;;;;4.27;3.87;;;19.10;68.00;;;;;;5012677;28;20457;-76
2023/06/08 03:43:04;;;;;;;4.83;4.00;;;19.10;68.20;;;;;;5012751;28;20203;-77
2023/06/08 03:45:31;;;;;;;4.40;4.00;;;19.10;68.30;;;;;;5011321;28;20213;-76
2023/06/08 03:47:58;;;;;;;3.50;3.20;;;19.00;68.20;;;;;;5012326;28;20237;-76
2023/06/08 03:50:24;;;;;;;3.77;3.47;;;19.00;68.20;;;;;;5012438;28;20203;-79
2023/06/08 03:52:51;;;;;;;3.67;3.37;;;19.00;68.20;;;;;;5012349;28;20689;-78
2023/06/08 03:55:21;;;;;;;4.00;3.60;;;19.00;68.20;;;;;;5012622;28;20717;-77
2023/06/08 03:57:48;;;;;;;4.03;3.70;;;19.00;68.30;;;;;;5012886;28;20835;-78
2023/06/08 04:00:15;;;;;;;4.20;3.50;;;19.00;69.00;;;;;;5015223;28;20192;-77
2023/06/08 04:02:42;;;;;;;3.83;3.43;;;19.00;68.30;;;;;;5015962;28;20283;-75
2023/06/08 04:05:10;;;;;;;4.07;3.70;;;19.00;68.30;;;;;;5016428;28;20230;-76
2023/06/08 04:07:37;;;;;;;6.10;4.57;;;19.00;68.30;;;;;;5016197;28;20536;-77
2023/06/08 04:10:04;;;;;;;6.93;5.30;;;19.00;68.20;;;;;;5015965;28;20712;-77
2023/06/08 04:12:33;;;;;;;6.03;4.90;;;19.10;67.90;;;;;;5016088;28;20450;-78
2023/06/08 04:15:01;;;;;;;4.77;4.30;;;19.10;68.10;;;;;;5003880;28;20310;-80
2023/06/08 04:17:28;;;;;;;4.20;3.90;;;19.10;68.30;;;;;;4999764;28;20227;-78
2023/06/08 04:19:55;;;;;;;3.77;3.47;;;19.10;68.50;;;;;;5015939;28;20569;-79
2023/06/08 04:22:22;;;;;;;6.13;4.10;;;19.10;68.80;;;;;;5014891;28;20207;-80
2023/06/08 04:24:49;;;;;;;4.70;4.30;;;19.20;69.20;;;;;;5016089;28;20235;-80
2023/06/08 04:27:17;;;;;;;4.80;4.10;;;19.20;69.50;;;;;;5003714;28;20202;-79
2023/06/08 04:29:45;;;;;;;5.50;4.60;;;19.10;69.60;;;;;;4997827;28;20671;-80
2023/06/08 04:32:12;;;;;;;6.83;4.37;;;19.20;69.80;;;;;;5015506;28;20227;-79
2023/06/08 04:34:39;;;;;;;4.80;4.40;;;19.20;69.90;;;;;;5013516;28;20310;-79
2023/06/08 04:37:07;;;;;;;4.97;4.53;;;19.20;69.80;;;;;;5013051;28;20210;-80
2023/06/08 04:39:35;;;;;;;4.30;3.90;;;19.20;70.10;;;;;;5012640;28;20454;-80
2023/06/08 04:42:02;;;;;;;4.70;4.30;;;19.30;70.10;;;;;;5014033;28;20573;-79
2023/06/08 04:44:33;;;;;;;6.40;4.80;;;19.30;70.20;;;;;;5015038;28;20215;-78
2023/06/08 04:47:02;;;;;;;6.37;4.70;;;19.30;70.70;;;;;;5020927;28;20210;-77
2023/06/08 04:49:32;;;;;;;6.63;4.67;;;19.40;71.00;;;;;;5018758;28;20205;-78
2023/06/08 04:51:59;;;;;;;5.03;4.43;;;19.40;70.90;;;;;;5021133;28;20296;-78
2023/06/08 04:54:28;;;;;;;11.60;5.87;;;19.50;70.90;;;;;;5016388;28;20581;-79
2023/06/08 04:56:58;;;;;;;20.93;8.60;;;19.50;70.70;;;;;;5014274;28;20828;-77
2023/06/08 04:59:25;;;;;;;13.83;6.30;;;19.60;71.20;;;;;;5015354;28;20242;-76
2023/06/08 05:01:52;;;;;;;24.93;9.23;;;19.60;71.10;;;;;;5015163;28;20298;-78
2023/06/08 05:04:21;;;;;;;14.07;7.20;;;19.70;71.50;;;;;;5014803;28;20304;-75
2023/06/08 05:06:48;;;;;;;5.97;5.00;;;19.80;71.90;;;;;;5004433;28;20222;-75
2023/06/08 05:09:15;;;;;;;6.30;4.90;;;19.90;71.60;;;;;;5015112;28;20211;-75
2023/06/08 05:11:42;;;;;;;4.80;4.40;;;20.00;71.10;;;;;;5015082;28;20695;-78
2023/06/08 05:14:10;;;;;;;6.77;4.00;;;20.10;71.40;;;;;;5015041;28;20231;-76
2023/06/08 05:16:38;;;;;;;5.27;4.80;;;20.20;71.20;;;;;;5014617;28;20659;-80
2023/06/08 05:19:07;;;;;;;5.03;4.13;;;20.30;71.70;;;;;;5008135;28;20234;-80
2023/06/08 05:21:37;;;;;;;5.07;4.67;;;20.40;71.40;;;;;;4995441;28;20299;-80
2023/06/08 05:24:05;;;;;;;5.17;4.67;;;20.40;71.00;;;;;;5010027;28;20282;-80
2023/06/08 05:26:31;;;;;;;6.40;5.20;;;20.50;70.60;;;;;;5015199;28;20249;-78
2023/06/08 05:28:58;;;;;;;6.03;5.53;;;20.50;69.70;;;;;;5014705;28;20610;-80
2023/06/08 05:31:26;;;;;;;5.80;5.17;;;20.50;69.50;;;;;;5014780;28;20310;-76
2023/06/08 05:33:53;;;;;;;5.90;4.70;;;20.60;69.80;;;;;;5013607;28;20238;-77
2023/06/08 05:36:20;;;;;;;5.77;5.20;;;20.60;70.00;;;;;;5014799;28;20553;-76
2023/06/08 05:38:48;;;;;;;6.37;5.77;;;20.70;70.70;;;;;;5014655;28;20203;-75
2023/06/08 05:41:15;;;;;;;6.30;5.43;;;20.80;71.00;;;;;;5014904;28;20294;-76
2023/06/08 05:43:43;;;;;;;6.43;5.83;;;20.80;70.90;;;;;;5014314;28;20230;-76
2023/06/08 05:46:10;;;;;;;6.37;5.77;;;20.90;70.30;;;;;;5014070;28;20239;-77
2023/06/08 05:48:38;;;;;;;6.00;5.50;;;21.00;69.80;;;;;;5001805;28;20562;-75
2023/06/08 05:51:05;;;;;;;5.70;5.30;;;20.90;69.70;;;;;;5014802;28;20679;-77
2023/06/08 05:53:32;;;;;;;7.23;6.40;;;21.00;70.30;;;;;;5014551;28;20282;-77
2023/06/08 05:56:00;;;;;;;6.07;5.27;;;21.10;70.20;;;;;;5007821;28;20247;-78
2023/06/08 05:58:27;;;;;;;6.47;5.90;;;21.20;70.50;;;;;;5013758;28;20195;-78
2023/06/08 06:00:54;;;;;;;6.93;6.33;;;21.30;71.30;;;;;;5014434;28;20254;-77
2023/06/08 06:03:21;;;;;;;9.67;7.60;;;21.40;71.20;;;;;;5001834;28;20231;-76
2023/06/08 06:05:49;;;;;;;7.57;6.87;;;21.50;71.50;;;;;;5011204;28;20210;-77
2023/06/08 06:08:16;;;;;;;6.73;6.23;;;21.60;71.40;;;;;;5013735;28;20237;-78
2023/06/08 06:10:42;;;;;;;6.67;6.17;;;21.70;71.50;;;;;;5014120;28;20286;-79
2023/06/08 06:13:11;;;;;;;7.93;7.23;;;21.70;71.20;;;;;;5013887;28;20203;-78
2023/06/08 06:15:37;;;;;;;8.90;8.07;;;21.80;71.70;;;;;;5014112;28;20226;-81
2023/06/08 06:18:04;;;;;;;8.20;7.50;;;21.80;71.80;;;;;;5013602;28;20289;-75
2023/06/08 06:20:31;;;;;;;8.90;7.90;;;21.90;72.00;;;;;;5013598;28;20219;-79
2023/06/08 06:22:58;;;;;;;9.17;8.30;;;21.90;72.80;;;;;;5013951;28;20203;-80
2023/06/08 06:25:25;;;;;;;11.30;8.93;;;21.90;73.50;;;;;;5011339;28;20250;-79
2023/06/08 06:27:52;;;;;;;10.70;9.00;;;21.90;74.70;;;;;;5008540;28;20213;-79
2023/06/08 06:30:20;;;;;;;10.60;8.50;;;21.90;74.70;;;;;;5012850;28;20200;-77
2023/06/08 06:32:47;;;;;;;11.47;9.00;;;21.80;74.70;;;;;;5013179;28;20306;-77
2023/06/08 06:35:14;;;;;;;9.67;8.70;;;21.80;75.60;;;;;;5007667;28;20219;-77
2023/06/08 06:37:41;;;;;;;10.27;9.37;;;21.90;76.00;;;;;;5009317;28;20226;-78
2023/06/08 06:40:09;;;;;;;9.83;9.03;;;21.70;75.40;;;;;;5013241;28;20786;-79
2023/06/08 06:42:37;;;;;;;9.90;9.03;;;21.70;75.60;;;;;;5009485;28;20211;-78
2023/06/08 06:45:04;;;;;;;9.03;8.23;;;21.70;76.00;;;;;;5010403;28;20326;-77
2023/06/08 06:47:33;;;;;;;10.77;9.77;;;21.80;76.70;;;;;;5013189;28;20286;-77
2023/06/08 06:50:00;;;;;;;10.50;9.17;;;21.80;77.00;;;;;;5012441;28;20198;-77
2023/06/08 06:52:27;;;;;;;9.27;8.37;;;21.90;77.20;;;;;;5009215;28;20238;-77
2023/06/08 06:54:54;;;;;;;9.80;8.90;;;22.00;77.40;;;;;;4995710;28;20226;-76
2023/06/08 06:57:20;;;;;;;10.50;9.60;;;22.00;77.50;;;;;;4993069;28;20298;-75
2023/06/08 06:59:48;;;;;;;10.90;9.93;;;22.00;77.50;;;;;;4994182;28;20279;-75
2023/06/08 07:02:15;;;;;;;10.43;9.37;;;22.10;77.50;;;;;;5010053;28;20214;-76
2023/06/08 07:04:43;;;;;;;11.30;10.10;;;22.10;77.50;;;;;;5011617;28;20234;-75
2023/06/08 07:07:10;;;;;;;12.50;11.40;;;22.20;77.60;;;;;;5009019;28;20199;-76
2023/06/08 07:09:37;;;;;;;11.60;10.53;;;22.20;77.70;;;;;;5012363;28;20231;-75
2023/06/08 07:12:05;;;;;;;12.00;10.90;;;22.30;78.10;;;;;;5012056;28;20231;-76
2023/06/08 07:14:32;;;;;;;11.50;10.40;;;22.30;78.20;;;;;;5012787;28;20202;-77
2023/06/08 07:16:59;;;;;;;12.27;11.10;;;22.30;78.20;;;;;;5013437;28;20234;-77
2023/06/08 07:19:26;;;;;;;13.07;11.80;;;22.40;78.10;;;;;;4994036;28;20204;-77
2023/06/08 07:21:54;;;;;;;11.63;10.53;;;22.40;78.50;;;;;;4997005;28;20925;-76
2023/06/08 07:24:21;;;;;;;12.00;10.90;;;22.40;78.70;;;;;;5003893;28;20224;-77
2023/06/08 07:26:49;;;;;;;11.43;10.43;;;22.50;78.50;;;;;;4992898;28;20672;-77
2023/06/08 07:29:15;;;;;;;12.47;11.27;;;22.60;78.70;;;;;;4993334;28;20239;-77
2023/06/08 07:31:42;;;;;;;13.03;11.33;;;22.60;78.60;;;;;;4993493;28;20208;-76
2023/06/08 07:34:09;;;;;;;11.17;10.07;;;22.70;78.30;;;;;;5002832;28;20236;-75
2023/06/08 07:36:36;;;;;;;12.30;11.03;;;22.70;78.20;;;;;;5015398;28;20227;-75
2023/06/08 07:39:04;;;;;;;14.50;13.13;;;22.70;78.00;;;;;;5003590;28;20210;-75
2023/06/08 07:41:32;;;;;;;11.53;10.53;;;22.70;79.50;;;;;;5014425;28;20281;-76
2023/06/08 07:43:59;;;;;;;13.23;11.93;;;22.70;78.50;;;;;;5015646;28;20290;-75
2023/06/08 07:46:26;;;;;;;15.07;12.80;;;22.70;78.70;;;;;;5014202;28;20315;-74
2023/06/08 07:48:53;;;;;;;11.93;10.83;;;22.80;79.40;;;;;;5011342;28;20199;-76
2023/06/08 07:51:20;;;;;;;13.13;12.00;;;22.80;79.80;;;;;;5014835;28;20290;-75
2023/06/08 07:53:46;;;;;;;11.67;10.57;;;22.90;79.80;;;;;;5014938;28;20227;-75
2023/06/08 07:56:15;;;;;;;12.10;11.00;;;22.90;79.90;;;;;;5014642;28;20315;-75
2023/06/08 07:58:42;;;;;;;11.80;10.80;;;22.90;80.00;;;;;;5014959;28;20306;-76
2023/06/08 08:01:09;;;;;;;11.23;10.13;;;22.80;79.40;;;;;;5015288;28;20282;-75
2023/06/08 08:03:38;;;;;;;11.50;10.50;;;22.80;79.50;;;;;;5015420;28;20664;-75
2023/06/08 08:06:06;;;;;;;11.37;10.37;;;22.90;79.40;;;;;;5014922;28;20227;-76
2023/06/08 08:08:33;;;;;;;12.23;11.13;;;22.90;79.70;;;;;;4997667;28;20290;-75
2023/06/08 08:11:00;;;;;;;11.30;10.30;;;22.90;79.20;;;;;;4993959;28;20208;-75
2023/06/08 08:13:29;;;;;;;10.87;9.97;;;22.90;79.20;;;;;;4995556;28;20283;-75
2023/06/08 08:15:56;;;;;;;12.43;11.40;;;22.90;79.80;;;;;;4995351;28;20231;-74
2023/06/08 08:18:23;;;;;;;11.80;10.63;;;22.90;80.10;;;;;;4995571;28;20231;-75
2023/06/08 08:20:50;;;;;;;11.40;10.40;;;23.00;80.60;;;;;;5013371;28;20619;-74
2023/06/08 08:23:17;;;;;;;11.67;10.57;;;23.00;80.60;;;;;;5014878;28;20322;-76
2023/06/08 08:25:44;;;;;;;11.10;10.07;;;23.00;80.50;;;;;;5014987;28;20230;-75
2023/06/08 08:28:11;;;;;;;10.53;9.53;;;23.00;80.20;;;;;;5015171;28;20203;-75
2023/06/08 08:30:39;;;;;;;10.70;9.70;;;23.00;79.50;;;;;;5015317;28;20258;-75
2023/06/08 08:33:06;;;;;;;10.93;9.87;;;23.00;79.00;;;;;;5004355;28;20283;-76
2023/06/08 08:35:35;;;;;;;11.17;10.27;;;23.00;78.80;;;;;;4995437;28;20224;-76
2023/06/08 08:38:02;;;;;;;11.77;10.77;;;23.00;78.90;;;;;;4994850;28;20215;-75
2023/06/08 08:40:29;;;;;;;11.37;10.40;;;22.80;78.80;;;;;;5013439;28;20269;-75
2023/06/08 08:43:02;;;;;;;12.60;11.37;;;22.70;79.10;;;;;;5015134;28;20318;-75
2023/06/08 08:45:31;;;;;;;10.80;9.90;;;22.60;80.30;;;;;;5014062;28;20247;-75
2023/06/08 08:48:02;;;;;;;8.33;7.63;;;22.60;79.50;;;;;;5014539;28;20656;-74
2023/06/08 08:50:33;;;;;;;7.97;7.17;;;22.60;77.70;;;;;;5015230;28;20196;-76
2023/06/08 08:53:01;;;;;;;8.03;7.23;;;22.60;77.30;;;;;;5014733;28;20221;-76
2023/06/08 08:55:28;;;;;;;7.23;6.53;;;22.70;77.40;;;;;;5013543;28;20626;-74
2023/06/08 08:57:58;;;;;;;7.23;6.63;;;22.70;76.90;;;;;;4995143;28;20208;-74
2023/06/08 09:00:26;;;;;;;7.60;7.00;;;22.80;78.10;;;;;;5012108;28;20211;-74
2023/06/08 09:02:53;;;;;;;10.63;9.73;;;23.00;78.20;;;;;;5015049;28;20207;-76
2023/06/08 09:05:21;;;;;;;9.23;8.47;;;23.10;77.70;;;;;;5014301;28;20199;-76
2023/06/08 09:07:48;;;;;;;9.50;8.60;;;23.10;78.20;;;;;;5013634;28;20246;-75
2023/06/08 09:10:18;;;;;;;9.17;8.30;;;23.20;79.00;;;;;;5013618;28;20570;-75
2023/06/08 09:12:46;;;;;;;9.37;8.47;;;23.30;79.70;;;;;;5013896;28;20709;-76
2023/06/08 09:15:16;;;;;;;7.93;7.23;;;23.50;79.70;;;;;;5014234;28;20219;-76
2023/06/08 09:17:44;;;;;;;10.27;7.90;;;23.60;79.10;;;;;;5006762;28;20211;-75
2023/06/08 09:20:12;;;;;;;9.90;8.90;;;23.60;76.70;;;;;;4994509;28;20237;-75
2023/06/08 09:22:41;;;;;;;8.70;8.00;;;23.70;76.80;;;;;;4999790;28;20286;-75
2023/06/08 09:25:09;;;;;;;8.67;7.87;;;23.70;76.40;;;;;;5014353;28;20227;-75
2023/06/08 09:27:37;;;;;;;6.73;6.13;;;23.80;74.90;;;;;;5013990;28;20509;-75
2023/06/08 09:30:23;;;;;;;5.77;5.20;;;23.80;74.80;;;;;;5014163;28;20211;-75
2023/06/08 09:32:50;;;;;;;6.13;5.10;;;23.90;71.70;;;;;;5013685;28;20698;-74
2023/06/08 09:35:23;;;;;;;6.40;5.57;;;24.00;72.00;;;;;;4985809;28;20213;-75
2023/06/08 09:37:52;;;;;;;5.63;5.13;;;24.10;71.70;;;;;;5013135;28;20203;-74
2023/06/08 09:40:21;;;;;;;6.60;6.03;;;24.10;72.40;;;;;;5014427;28;20207;-77
2023/06/08 09:42:53;;;;;;;6.20;5.63;;;24.30;72.90;;;;;;5015830;28;20221;-76
2023/06/08 09:45:20;;;;;;;5.83;5.23;;;24.30;71.10;;;;;;5013260;28;20235;-76
2023/06/08 09:47:48;;;;;;;6.03;5.53;;;24.40;70.60;;;;;;5011930;28;20229;-75
2023/06/08 09:50:15;;;;;;;5.90;5.30;;;24.50;71.60;;;;;;5013302;28;20217;-76
2023/06/08 09:52:43;;;;;;;6.23;5.73;;;24.60;72.90;;;;;;5012992;28;20207;-75
2023/06/08 09:55:16;;;;;;;6.27;5.70;;;24.70;73.70;;;;;;5011728;28;20662;-75
2023/06/08 09:57:43;;;;;;;6.13;5.63;;;24.70;74.40;;;;;;5012017;28;20262;-75
2023/06/08 10:00:17;;;;;;;6.73;6.23;;;24.80;74.50;;;;;;5012777;28;20302;-75
2023/06/08 10:02:54;;;;;;;7.13;6.20;;;24.80;74.50;;;;;;5012785;28;20209;-75
2023/06/08 10:05:23;;;;;;;7.27;6.57;;;24.80;74.50;;;;;;5012524;28;20206;-74
2023/06/08 10:07:55;;;;;;;6.87;6.27;;;24.80;74.30;;;;;;5010935;28;20557;-76
2023/06/08 10:10:30;;;;;;;6.53;5.93;;;24.90;73.70;;;;;;5012669;28;20236;-73
2023/06/08 10:12:58;;;;;;;7.57;6.87;;;24.90;74.20;;;;;;5006386;28;20211;-73
2023/06/08 10:15:27;;;;;;;7.97;7.27;;;25.00;73.80;;;;;;5007237;28;20289;-75
2023/06/08 10:17:55;;;;;;;8.03;7.33;;;25.00;73.30;;;;;;5012649;28;20203;-75
2023/06/08 10:20:22;;;;;;;7.40;6.63;;;25.10;73.70;;;;;;5012085;28;20205;-75
2023/06/08 10:22:49;;;;;;;8.23;7.53;;;25.10;73.00;;;;;;5009866;28;20273;-74
2023/06/08 10:25:18;;;;;;;7.60;6.90;;;25.10;72.80;;;;;;5012548;28;20761;-75
2023/06/08 10:27:50;;;;;;;8.07;7.30;;;25.20;71.60;;;;;;5011902;28;20655;-75
2023/06/08 10:30:28;;;;;;;8.07;7.20;;;25.30;72.00;;;;;;5011930;28;20199;-74
2023/06/08 10:33:06;;;;;;;7.57;6.87;;;25.30;71.30;;;;;;5011339;28;20203;-75
2023/06/08 10:35:34;;;;;;;7.07;6.47;;;25.50;73.20;;;;;;4999222;28;20231;-74
2023/06/08 10:38:09;;;;;;;7.50;6.87;;;25.60;74.20;;;;;;4995792;28;20293;-71
2023/06/08 10:40:43;;;;;;;7.07;6.47;;;25.80;72.30;;;;;;5011783;28;20227;-72
2023/06/08 10:43:12;;;;;;;8.33;6.63;;;26.10;72.50;;;;;;5012054;28;20626;-75
2023/06/08 10:45:41;;;;;;;7.53;6.20;;;26.30;71.90;;;;;;4997548;28;20618;-75
2023/06/08 10:48:09;;;;;;;6.40;5.80;;;26.50;69.90;;;;;;5007977;28;20228;-73
2023/06/08 10:50:40;;;;;;;6.83;6.20;;;26.70;69.70;;;;;;5006973;28;20208;-73
2023/06/08 10:53:07;;;;;;;6.50;5.97;;;26.90;68.40;;;;;;5010247;28;20223;-74
2023/06/08 10:55:47;;;;;;;6.93;6.27;;;27.00;68.30;;;;;;5012040;28;20211;-74
2023/06/08 10:58:20;;;;;;;7.30;5.83;;;27.10;65.80;;;;;;5011163;28;20204;-74
2023/06/08 11:00:50;;;;;;;6.00;5.40;;;27.20;66.60;;;;;;4992043;28;20784;-74
2023/06/08 11:03:19;;;;;;;6.20;5.70;;;27.40;68.30;;;;;;5011248;28;20218;-74
2023/06/08 11:05:50;;;;;;;6.00;5.07;;;27.50;67.00;;;;;;5010502;28;20237;-74
2023/06/08 11:08:17;;;;;;;6.23;5.63;;;27.70;65.80;;;;;;5013856;28;20214;-74
2023/06/08 11:10:47;;;;;;;6.40;5.90;;;27.90;65.80;;;;;;5015253;28;20320;-73
2023/06/08 11:13:16;;;;;;;5.87;5.37;;;28.00;65.80;;;;;;5015223;28;20208;-75
2023/06/08 11:15:46;;;;;;;6.00;5.37;;;28.20;65.00;;;;;;5014797;28;20206;-74
2023/06/08 11:18:14;;;;;;;5.87;5.37;;;28.30;62.90;;;;;;5014510;28;20720;-73
2023/06/08 11:20:42;;;;;;;5.80;5.30;;;28.40;64.00;;;;;;5014669;28;20301;-73
2023/06/08 11:23:10;;;;;;;5.23;4.73;;;28.60;62.50;;;;;;5014658;28;20270;-76
2023/06/08 11:25:38;;;;;;;6.67;5.40;;;28.70;62.10;;;;;;5014901;28;20258;-74
2023/06/08 11:28:07;;;;;;;5.73;5.23;;;28.80;62.10;;;;;;5013265;28;20221;-75
2023/06/08 11:30:35;;;;;;;5.53;5.13;;;28.90;60.80;;;;;;5014705;28;20669;-74
2023/06/08 11:33:05;;;;;;;5.30;4.90;;;29.10;60.30;;;;;;5014579;28;20601;-74
2023/06/08 11:35:32;;;;;;;4.87;4.47;;;29.20;58.70;;;;;;5014511;28;20630;-75
2023/06/08 11:38:00;;;;;;;5.07;4.60;;;29.40;58.90;;;;;;5013942;28;20226;-74
2023/06/08 11:40:28;;;;;;;5.10;4.60;;;29.50;57.60;;;;;;5014524;28;20670;-72
2023/06/08 11:42:57;;;;;;;4.50;4.10;;;29.60;57.00;;;;;;5014453;28;20213;-74
2023/06/08 11:45:24;;;;;;;4.80;4.40;;;29.70;55.80;;;;;;5012948;28;20218;-75
2023/06/08 11:47:52;;;;;;;4.67;4.27;;;29.80;55.20;;;;;;5013646;28;20230;-74
2023/06/08 11:50:21;;;;;;;4.30;4.00;;;29.90;55.30;;;;;;5014462;28;20203;-75
2023/06/08 11:52:49;;;;;;;4.63;4.23;;;30.00;55.40;;;;;;5014439;28;20298;-74
2023/06/08 11:55:24;;;;;;;5.43;4.33;;;30.10;53.40;;;;;;5014442;28;20604;-73
2023/06/08 11:57:55;;;;;;;4.07;3.77;;;30.20;54.20;;;;;;5013631;28;20317;-74
2023/06/08 12:00:23;;;;;;;4.67;3.93;;;30.30;51.60;;;;;;5014206;28;20235;-75
2023/06/08 12:02:51;;;;;;;4.97;4.50;;;30.40;50.60;;;;;;5013787;28;20706;-75
2023/06/08 12:05:20;;;;;;;4.37;3.97;;;30.50;51.40;;;;;;5014241;28;20742;-75
2023/06/08 12:07:59;;;;;;;4.30;3.97;;;30.60;50.80;;;;;;5013715;28;20206;-74
2023/06/08 12:10:33;;;;;;;4.00;3.63;;;30.60;46.30;;;;;;5013906;28;20216;-74
2023/06/08 12:13:01;;;;;;;3.90;3.60;;;30.70;46.60;;;;;;5013894;28;20288;-74
2023/06/08 12:15:27;;;;;;;4.57;4.17;;;30.70;47.50;;;;;;5013970;28;20207;-75
2023/06/08 12:18:01;;;;;;;4.77;4.37;;;30.80;47.70;;;;;;5012964;28;20227;-75
2023/06/08 12:20:31;;;;;;;4.40;3.90;;;30.90;47.70;;;;;;5013138;28;20302;-75
2023/06/08 12:22:59;;;;;;;4.30;3.90;;;31.00;47.80;;;;;;5013673;28;20213;-74
2023/06/08 12:25:26;;;;;;;4.60;4.20;;;31.10;48.00;;;;;;5013281;28;20309;-74
2023/06/08 12:27:54;;;;;;;4.50;4.10;;;31.20;48.30;;;;;;5013194;28;20402;-74
2023/06/08 12:30:22;;;;;;;5.00;3.97;;;31.30;47.30;;;;;;5013826;28;20211;-75
2023/06/08 12:32:49;;;;;;;4.17;3.60;;;31.40;47.20;;;;;;5013400;28;20211;-74
2023/06/08 12:35:16;;;;;;;4.00;3.70;;;31.50;46.90;;;;;;4994287;28;20207;-75
2023/06/08 12:37:48;;;;;;;4.13;3.83;;;31.50;44.90;;;;;;5012970;28;20632;-74
2023/06/08 12:40:16;;;;;;;5.73;4.30;;;31.60;44.90;;;;;;5013695;28;20261;-74
2023/06/08 12:42:48;;;;;;;4.50;3.63;;;31.70;44.20;;;;;;5013321;28;20207;-75
2023/06/08 12:45:16;;;;;;;4.83;3.73;;;31.80;43.60;;;;;;5013390;28;20223;-74
2023/06/08 12:47:43;;;;;;;4.20;3.77;;;31.90;44.20;;;;;;5012366;28;20214;-75
2023/06/08 12:50:11;;;;;;;4.63;3.47;;;31.90;44.10;;;;;;5013388;28;20234;-73